Time;durP1;ratioP1;P1;durP2;ratioP2;P2;SDS_P1;SDS_P2;PMS_P1;PMS_P2;Temp;Humidity;BMP_temperature;BMP_pressure;BME280_temperature;BME280_humidity;BME280_pressure;Samples;Min_cycle;Max_cycle;Signal;HPM_P1;HPM_P2
2023/11/01 00:00:39;;;;;;;0.95;0.95;;;;;;;;;;4996232;28;20502;-87
2023/11/01 00:03:05;;;;;;;0.50;0.50;;;;;;;;;;4996124;28;20044;-85
2023/11/01 00:05:31;;;;;;;6.72;1.00;;;;;;;;;;4995406;28;20037;-87
2023/11/01 00:07:57;;;;;;;1.10;0.88;;;;;;;;;;4993997;28;20026;-87
2023/11/01 00:10:23;;;;;;;0.63;0.60;;;;;;;;;;4994062;28;20019;-85
2023/11/01 00:12:49;;;;;;;0.68;0.68;;;;;;;;;;4993876;28;20129;-85
2023/11/01 00:15:16;;;;;;;0.70;0.60;;;;;;;;;;4993942;28;20133;-87
2023/11/01 00:17:42;;;;;;;0.80;0.70;;;;;;;;;;4994006;28;20134;-87
2023/11/01 00:20:08;;;;;;;0.65;0.65;;;;;;;;;;4994084;28;20026;-87
2023/11/01 00:22:34;;;;;;;1.25;0.93;;;;;;;;;;4994223;28;20022;-89
2023/11/01 00:25:01;;;;;;;0.60;0.60;;;;;;;;;;4994272;28;20026;-89
2023/11/01 00:27:31;;;;;;;1.00;0.70;;;;;;;;;;4993775;28;20031;-88
2023/11/01 00:29:58;;;;;;;0.60;0.60;;;;;;;;;;4994152;28;20426;-88
2023/11/01 00:32:24;;;;;;;0.70;0.60;;;;;;;;;;4993920;28;20073;-88
2023/11/01 00:34:51;;;;;;;0.60;0.60;;;;;;;;;;4993851;28;20045;-88
2023/11/01 00:37:17;;;;;;;1.17;1.08;;;;;;;;;;4995273;28;20030;-87
2023/11/01 00:39:43;;;;;;;0.93;0.88;;;;;;;;;;4995468;28;20054;-87
2023/11/01 00:42:09;;;;;;;0.60;0.60;;;;;;;;;;4994453;28;20080;-88
2023/11/01 00:44:35;;;;;;;0.90;0.52;;;;;;;;;;4994593;28;20022;-86
2023/11/01 00:47:01;;;;;;;0.60;0.60;;;;;;;;;;4997958;28;20114;-86
2023/11/01 00:49:27;;;;;;;1.95;0.63;;;;;;;;;;5013445;28;20392;-87
2023/11/01 00:51:54;;;;;;;0.73;0.70;;;;;;;;;;5017060;28;20022;-87
2023/11/01 00:54:20;;;;;;;0.60;0.60;;;;;;;;;;5017620;28;20517;-86
2023/11/01 00:56:46;;;;;;;0.82;0.68;;;;;;;;;;5014129;28;20030;-85
2023/11/01 00:59:12;;;;;;;0.70;0.70;;;;;;;;;;5016459;28;20462;-88
2023/11/01 01:01:38;;;;;;;0.60;0.60;;;;;;;;;;5017742;28;20101;-87
2023/11/01 01:04:04;;;;;;;0.70;0.70;;;;;;;;;;5016963;28;20026;-87
2023/11/01 01:06:30;;;;;;;0.85;0.70;;;;;;;;;;5017026;28;20466;-88
2023/11/01 01:08:56;;;;;;;1.00;0.90;;;;;;;;;;5017300;28;20025;-89
2023/11/01 01:11:22;;;;;;;0.95;0.80;;;;;;;;;;5017166;28;20056;-87
2023/11/01 01:13:49;;;;;;;1.17;0.80;;;;;;;;;;5017591;28;20045;-88
2023/11/01 01:16:15;;;;;;;1.20;0.93;;;;;;;;;;5017603;28;20117;-90
2023/11/01 01:18:42;;;;;;;1.48;0.80;;;;;;;;;;5017824;28;20030;-90
2023/11/01 01:21:08;;;;;;;0.80;0.70;;;;;;;;;;5017043;28;20160;-88
2023/11/01 01:23:34;;;;;;;0.75;0.63;;;;;;;;;;5016942;28;20022;-87
2023/11/01 01:26:00;;;;;;;1.00;0.93;;;;;;;;;;5016806;28;20065;-89
2023/11/01 01:28:26;;;;;;;1.15;0.80;;;;;;;;;;5016656;28;20470;-87
2023/11/01 01:30:52;;;;;;;0.73;0.68;;;;;;;;;;5008517;28;20100;-83
2023/11/01 01:33:18;;;;;;;1.15;0.88;;;;;;;;;;4997006;28;20032;-88
2023/11/01 01:35:45;;;;;;;0.60;0.60;;;;;;;;;;4996445;28;20054;-88
2023/11/01 01:38:11;;;;;;;0.80;0.80;;;;;;;;;;4997252;28;20075;-85
2023/11/01 01:40:37;;;;;;;0.70;0.70;;;;;;;;;;4996639;28;20026;-87
2023/11/01 01:43:15;;;;;;;0.95;0.70;;;;;;;;;;4996759;28;20053;-88
2023/11/01 01:45:41;;;;;;;0.60;0.60;;;;;;;;;;4996580;28;20026;-87
2023/11/01 01:48:07;;;;;;;0.63;0.63;;;;;;;;;;4996344;28;20025;-84
2023/11/01 01:50:34;;;;;;;0.85;0.70;;;;;;;;;;4996944;28;20109;-86
2023/11/01 01:53:00;;;;;;;1.00;0.90;;;;;;;;;;4996480;28;20057;-87
2023/11/01 01:55:26;;;;;;;0.80;0.80;;;;;;;;;;4996388;28;20026;-85
2023/11/01 01:57:52;;;;;;;1.45;1.00;;;;;;;;;;4996505;28;20037;-85
2023/11/01 02:00:19;;;;;;;1.48;1.10;;;;;;;;;;4996406;28;20018;-91
2023/11/01 02:02:45;;;;;;;0.75;0.70;;;;;;;;;;4997537;28;20121;-89
2023/11/01 02:05:11;;;;;;;1.35;1.00;;;;;;;;;;4996510;28;20116;-85
2023/11/01 02:07:38;;;;;;;1.00;0.80;;;;;;;;;;4996284;28;20028;-84
2023/11/01 02:10:05;;;;;;;0.70;0.70;;;;;;;;;;4996443;28;20058;-86
2023/11/01 02:12:31;;;;;;;1.27;1.00;;;;;;;;;;4997355;28;20021;-85
2023/11/01 02:14:57;;;;;;;0.80;0.77;;;;;;;;;;4996014;28;20053;-87
2023/11/01 02:17:23;;;;;;;0.90;0.70;;;;;;;;;;4996198;28;20030;-85
2023/11/01 02:19:50;;;;;;;2.92;0.82;;;;;;;;;;4996438;28;20497;-87
2023/11/01 02:22:16;;;;;;;1.13;0.80;;;;;;;;;;4996022;28;20113;-88
2023/11/01 02:24:43;;;;;;;0.85;0.70;;;;;;;;;;4995901;28;20026;-85
2023/11/01 02:27:09;;;;;;;0.60;0.60;;;;;;;;;;4996996;28;20386;-85
2023/11/01 02:29:35;;;;;;;0.85;0.85;;;;;;;;;;5019943;28;20017;-83
2023/11/01 02:32:01;;;;;;;1.20;0.90;;;;;;;;;;5008968;28;20452;-84
2023/11/01 02:34:27;;;;;;;0.50;0.50;;;;;;;;;;5003430;28;20030;-84
2023/11/01 02:36:53;;;;;;;0.50;0.50;;;;;;;;;;4999685;28;20046;-84
2023/11/01 02:39:21;;;;;;;0.75;0.68;;;;;;;;;;4996463;28;20085;-83
2023/11/01 02:41:47;;;;;;;0.65;0.60;;;;;;;;;;4995951;28;20053;-84
2023/11/01 02:44:13;;;;;;;0.77;0.77;;;;;;;;;;4996044;28;20044;-87
2023/11/01 02:46:39;;;;;;;0.60;0.55;;;;;;;;;;4996930;28;20022;-87
2023/11/01 02:49:05;;;;;;;0.65;0.60;;;;;;;;;;4996008;28;20091;-83
2023/11/01 02:51:31;;;;;;;1.48;0.95;;;;;;;;;;4995728;28;20088;-85
2023/11/01 02:53:57;;;;;;;1.13;0.90;;;;;;;;;;4995628;28;20026;-87
2023/11/01 02:56:23;;;;;;;1.52;0.93;;;;;;;;;;4995069;28;20026;-84
2023/11/01 02:58:49;;;;;;;0.73;0.68;;;;;;;;;;4995327;28;20125;-84
2023/11/01 03:01:17;;;;;;;1.00;0.90;;;;;;;;;;4995379;28;20033;-84
2023/11/01 03:03:43;;;;;;;1.10;1.00;;;;;;;;;;4996597;28;20101;-84
2023/11/01 03:06:09;;;;;;;1.30;0.80;;;;;;;;;;4996611;28;20031;-84
2023/11/01 03:08:36;;;;;;;0.50;0.50;;;;;;;;;;4994671;28;20022;-86
2023/11/01 03:11:02;;;;;;;0.63;0.63;;;;;;;;;;4994946;28;20351;-86
2023/11/01 03:13:28;;;;;;;0.77;0.70;;;;;;;;;;4995864;28;20026;-86
2023/11/01 03:15:54;;;;;;;1.83;0.90;;;;;;;;;;4994848;28;20037;-84
2023/11/01 03:18:20;;;;;;;1.58;1.00;;;;;;;;;;4994877;28;20300;-86
2023/11/01 03:20:47;;;;;;;0.60;0.60;;;;;;;;;;4995080;28;20023;-84
2023/11/01 03:23:13;;;;;;;0.60;0.60;;;;;;;;;;4994897;28;20026;-85
2023/11/01 03:25:39;;;;;;;1.45;1.25;;;;;;;;;;4994627;28;20031;-85
2023/11/01 03:28:05;;;;;;;0.80;0.68;;;;;;;;;;4994819;28;20022;-85
2023/11/01 03:30:31;;;;;;;1.08;0.98;;;;;;;;;;4995188;28;20018;-85
2023/11/01 03:32:57;;;;;;;0.60;0.60;;;;;;;;;;4994769;28;20026;-83
2023/11/01 03:35:23;;;;;;;0.90;0.70;;;;;;;;;;4995777;28;20117;-87
2023/11/01 03:37:49;;;;;;;0.60;0.60;;;;;;;;;;4994763;28;20439;-88
2023/11/01 03:40:16;;;;;;;0.65;0.60;;;;;;;;;;4994829;28;20050;-84
2023/11/01 03:42:42;;;;;;;0.85;0.85;;;;;;;;;;4994723;28;20057;-87
2023/11/01 03:45:08;;;;;;;0.70;0.63;;;;;;;;;;4994353;28;20504;-87
2023/11/01 03:47:34;;;;;;;0.90;0.85;;;;;;;;;;4994766;28;20029;-84
2023/11/01 03:50:00;;;;;;;0.70;0.70;;;;;;;;;;4994721;28;20446;-85
2023/11/01 03:52:26;;;;;;;0.60;0.60;;;;;;;;;;4994427;28;20014;-86
2023/11/01 03:54:52;;;;;;;0.70;0.70;;;;;;;;;;4994485;28;20034;-87
2023/11/01 03:57:19;;;;;;;0.50;0.50;;;;;;;;;;4994167;28;20463;-87
2023/11/01 03:59:45;;;;;;;0.85;0.70;;;;;;;;;;4995460;28;20441;-85
2023/11/01 04:02:11;;;;;;;0.70;0.60;;;;;;;;;;4994373;28;20018;-87
2023/11/01 04:04:37;;;;;;;1.10;1.00;;;;;;;;;;4994415;28;20030;-88
2023/11/01 04:07:04;;;;;;;1.30;0.80;;;;;;;;;;4994257;28;20075;-85
2023/11/01 04:09:30;;;;;;;0.85;0.75;;;;;;;;;;4994217;28;20057;-88
2023/11/01 04:11:56;;;;;;;0.70;0.60;;;;;;;;;;4994685;28;20038;-86
2023/11/01 04:14:22;;;;;;;0.80;0.63;;;;;;;;;;4994247;28;20032;-85
2023/11/01 04:16:48;;;;;;;0.52;0.52;;;;;;;;;;4994314;28;20061;-85
2023/11/01 04:19:15;;;;;;;0.88;0.70;;;;;;;;;;4993396;28;20106;-86
2023/11/01 04:21:42;;;;;;;0.80;0.70;;;;;;;;;;4994295;28;20026;-85
2023/11/01 04:24:09;;;;;;;0.73;0.60;;;;;;;;;;4994693;28;20022;-88
2023/11/01 04:26:36;;;;;;;1.00;0.80;;;;;;;;;;4994746;28;20022;-84
2023/11/01 04:29:04;;;;;;;0.85;0.68;;;333.60;2329.60;;;;;;4994269;28;20355;-85
2023/11/01 04:31:29;;;;;;;0.60;0.57;;;333.50;2329.60;;;;;;4994923;28;20085;-86
2023/11/01 04:33:57;;;;;;;0.82;0.70;;;333.40;2329.60;;;;;;4994015;28;20030;-84
2023/11/01 04:36:25;;;;;;;0.65;0.65;;;333.60;2329.60;;;;;;4996838;28;20050;-84
2023/11/01 04:38:57;;;;;;;0.70;0.70;;;333.60;2329.60;;;;;;4999021;28;20097;-85
2023/11/01 04:41:27;;;;;;;0.95;0.85;;;333.70;2329.60;;;;;;4998549;28;20058;-86
2023/11/01 04:43:52;;;;;;;0.70;0.70;;;333.60;2329.60;;;;;;4994093;28;20462;-84
2023/11/01 04:46:18;;;;;;;0.60;0.60;;;333.70;2329.60;;;;;;4993916;28;20037;-86
2023/11/01 04:48:44;;;;;;;0.60;0.60;;;333.70;2329.60;;;;;;4993350;28;20073;-87
2023/11/01 04:51:10;;;;;;;1.25;0.80;;;333.70;1996.80;;;;;;4993687;28;20037;-82
2023/11/01 04:53:36;;;;;;;0.88;0.70;;;333.60;2329.60;;;;;;4993592;28;20113;-85
2023/11/01 04:56:05;;;;;;;0.60;0.60;;;333.60;2329.60;;;;;;4993463;28;20038;-87
2023/11/01 04:58:35;;;;;;;0.60;0.60;;;333.60;2329.60;;;;;;4993738;28;20351;-85
2023/11/01 05:01:04;;;;;;;0.50;0.50;;;333.60;2099.20;;;;;;4993969;28;20031;-87
2023/11/01 05:03:30;;;;;;;1.30;0.80;;;333.60;2329.60;;;;;;4993650;28;20496;-87
2023/11/01 05:05:56;;;;;;;0.73;0.60;;;333.70;2329.60;;;;;;4995016;28;20027;-87
2023/11/01 05:08:21;;;;;;;0.88;0.85;;;333.70;2329.60;;;;;;4993829;28;20039;-84
2023/11/01 05:10:47;;;;;;;0.73;0.65;;;333.60;2329.60;;;;;;4993879;28;20364;-86
2023/11/01 05:13:13;;;;;;;0.63;0.63;;;333.50;2329.60;;;;;;4993447;28;20057;-86
2023/11/01 05:15:39;;;;;;;0.63;0.60;;;333.50;2329.60;;;;;;4993154;28;20038;-89
2023/11/01 05:18:05;;;;;;;1.02;0.80;;;333.60;2329.60;;;;;;4993325;28;20076;-85
2023/11/01 05:20:31;;;;;;;0.70;0.70;;;333.60;2150.40;;;;;;4993400;28;20125;-86
2023/11/01 05:22:56;;;;;;;1.00;0.70;;;333.40;2329.60;;;;;;4993185;28;20026;-88
2023/11/01 05:25:23;;;;;;;0.88;0.80;;;333.50;2329.60;;;;;;4993348;28;20056;-84
2023/11/01 05:27:49;;;;;;;0.65;0.65;;;333.60;2329.60;;;;;;4993351;28;20026;-86
2023/11/01 05:30:14;;;;;;;0.63;0.63;;;333.60;2329.60;;;;;;4993515;28;20122;-84
2023/11/01 05:32:47;;;;;;;0.70;0.70;;;333.50;2329.60;;;;;;4996729;28;20031;-86
2023/11/01 05:35:14;;;;;;;0.60;0.60;;;333.60;2329.60;;;;;;4997810;28;20077;-85
2023/11/01 05:37:40;;;;;;;0.60;0.60;;;333.60;2329.60;;;;;;4996988;28;20452;-88
2023/11/01 05:40:13;;;;;;;0.60;0.60;;;333.60;2329.60;;;;;;4996667;28;20118;-84
2023/11/01 05:42:46;;;;;;;1.20;0.73;;;333.70;2329.60;;;;;;4996712;28;20026;-83
2023/11/01 05:45:16;;;;;;;1.23;0.90;;;333.70;2329.60;;;;;;4997670;28;20088;-84
2023/11/01 05:47:49;;;;;;;1.73;0.95;;;333.70;2329.60;;;;;;4996824;28;20125;-87
2023/11/01 05:50:19;;;;;;;0.68;0.68;;;358.40;2329.60;;;;;;4996825;28;20483;-83
2023/11/01 05:52:45;;;;;;;0.85;0.63;;;358.40;2329.60;;;;;;5021288;28;20081;-85
2023/11/01 05:55:12;;;;;;;0.73;0.70;;;358.40;2329.60;;;;;;5007861;28;20031;-83
2023/11/01 05:57:37;;;;;;;0.70;0.68;;;359.00;2329.60;;;;;;5002970;28;20057;-83
2023/11/01 06:00:08;;;;;;;0.90;0.70;;;358.50;2176.00;;;;;;5000135;28;20471;-83
2023/11/01 06:02:36;;;;;;;1.05;0.85;;;358.40;2329.60;;;;;;4996456;28;20037;-85
2023/11/01 06:05:03;;;;;;;0.70;0.70;;;358.50;2329.60;;;;;;4997432;28;20026;-84
2023/11/01 06:07:29;;;;;;;0.82;0.65;;;358.60;2329.60;;;;;;4997686;28;20106;-84
2023/11/01 06:09:55;;;;;;;1.23;0.90;;;358.60;2329.60;;;;;;4996304;28;20117;-84
2023/11/01 06:12:21;;;;;;;1.05;0.85;;;358.60;2329.60;;;;;;4996171;28;20113;-84
2023/11/01 06:14:47;;;;;;;2.60;0.98;;;358.70;2022.40;;;;;;4996320;28;20072;-87
2023/11/01 06:17:13;;;;;;;0.80;0.70;;;358.80;2329.60;;;;;;4996136;28;20030;-88
2023/11/01 06:19:38;;;;;;;0.90;0.70;;;358.80;2329.60;;;;;;4995677;28;20041;-84
2023/11/01 06:22:04;;;;;;;0.70;0.60;;;358.90;2329.60;;;;;;4997239;28;20030;-86
2023/11/01 06:24:33;;;;;;;0.70;0.60;;;358.90;2329.60;;;;;;4996024;28;20492;-84
2023/11/01 06:27:00;;;;;;;0.60;0.60;;;359.00;2329.60;;;;;;4996210;28;20050;-83
2023/11/01 06:29:26;;;;;;;0.50;0.50;;;359.00;2329.60;;;;;;4997725;28;20109;-85
2023/11/01 06:31:52;;;;;;;2.08;0.80;;;359.00;2329.60;;;;;;4997335;28;20026;-86
2023/11/01 06:34:18;;;;;;;1.02;0.70;;;359.00;2329.60;;;;;;4995396;28;20034;-88
2023/11/01 06:36:45;;;;;;;0.60;0.60;;;359.10;2329.60;;;;;;4997423;28;20053;-85
2023/11/01 06:39:11;;;;;;;0.77;0.77;;;359.10;2329.60;;;;;;4996970;28;20050;-87
2023/11/01 06:41:37;;;;;;;0.63;0.60;;;359.10;2329.60;;;;;;4995360;28;20463;-83
2023/11/01 06:44:05;;;;;;;0.68;0.65;;;359.10;2329.60;;;;;;4994819;28;20036;-85
2023/11/01 06:46:31;;;;;;;0.50;0.50;;;359.10;2329.60;;;;;;4995483;28;20037;-84
2023/11/01 06:48:57;;;;;;;0.60;0.60;;;359.20;2329.60;;;;;;4995487;28;20026;-87
2023/11/01 06:51:23;;;;;;;0.50;0.50;;;359.20;2329.60;;;;;;4995840;28;20037;-86
2023/11/01 06:53:49;;;;;;;0.63;0.60;;;359.30;2329.60;;;;;;4995446;28;20022;-85
2023/11/01 06:56:15;;;;;;;2.45;1.27;;;359.30;2329.60;;;;;;4995379;28;20034;-88
2023/11/01 06:58:41;;;;;;;0.50;0.50;;;359.30;2329.60;;;;;;4995492;28;20056;-85
2023/11/01 07:01:07;;;;;;;0.77;0.70;;;359.30;2329.60;;;;;;4995424;28;20363;-83
2023/11/01 08:34:35;;;;;;;0.70;0.70;;;384.50;2329.60;;;;;;5091519;27;20386;-87
2023/11/01 08:37:01;;;;;;;0.60;0.60;;;;;;;;;;5107205;28;20036;-86
2023/11/01 08:39:28;;;;;;;0.60;0.60;;;;;;;;;;5073557;28;20059;-87
2023/11/01 08:41:54;;;;;;;0.68;0.68;;;;;;;;;;5073628;28;20024;-87
2023/11/01 08:44:20;;;;;;;0.82;0.63;;;;;;;;;;5073365;28;20025;-86
2023/11/01 08:46:46;;;;;;;0.57;0.57;;;;;;;;;;5073500;28;20024;-85
2023/11/01 08:49:13;;;;;;;0.60;0.60;;;;;;;;;;5073325;28;20032;-86
2023/11/01 08:51:39;;;;;;;0.60;0.60;;;;;;;;;;5072967;28;20020;-85
2023/11/01 08:54:06;;;;;;;0.63;0.60;;;;;;;;;;5091348;28;20024;-85
2023/11/01 08:56:32;;;;;;;0.60;0.60;;;;;;;;;;5073241;28;20469;-85
2023/11/01 08:58:58;;;;;;;0.60;0.60;;;;;;;;;;5072967;28;20481;-85
2023/11/01 09:01:24;;;;;;;0.60;0.60;;;;;;;;;;5073305;28;20078;-85
2023/11/01 09:03:51;;;;;;;0.57;0.55;;;;;;;;;;5067675;28;20020;-84
2023/11/01 09:06:17;;;;;;;1.52;0.70;;;;;;;;;;5072660;28;20032;-85
2023/11/01 09:08:43;;;;;;;0.60;0.60;;;;;;;;;;5095368;28;20015;-85
2023/11/01 09:11:09;;;;;;;0.75;0.75;;;;;;;;;;5103284;28;20401;-86
2023/11/01 09:13:36;;;;;;;0.80;0.73;;;;;;;;;;5076445;28;20089;-85
2023/11/01 09:16:02;;;;;;;0.60;0.60;;;;;;;;;;5074666;28;20549;-86
2023/11/01 09:18:28;;;;;;;0.93;0.88;;;;;;;;;;5072579;28;20027;-86
2023/11/01 09:20:54;;;;;;;0.55;0.55;;;;;;;;;;5072395;28;20027;-85
2023/11/01 09:23:20;;;;;;;1.77;0.82;;;;;;;;;;5072488;28;20117;-87
2023/11/01 09:25:46;;;;;;;0.80;0.80;;;;;;;;;;5090337;28;20032;-86
2023/11/01 09:28:13;;;;;;;0.63;0.60;;;;;;;;;;5090439;28;20024;-86
2023/11/01 09:30:39;;;;;;;0.60;0.60;;;;;;;;;;5072891;28;20052;-84
2023/11/01 09:33:05;;;;;;;0.50;0.50;;;;;;;;;;5072374;28;20416;-87
2023/11/01 09:35:31;;;;;;;0.60;0.60;;;;;;;;;;5058734;28;20032;-84
2023/11/01 09:37:57;;;;;;;0.50;0.50;;;;;;;;;;5058483;28;20033;-84
2023/11/01 09:40:24;;;;;;;0.80;0.80;;;;;;;;;;5055217;28;20457;-84
2023/11/01 09:42:50;;;;;;;0.52;0.52;;;;;;;;;;5076448;28;20035;-84
2023/11/01 09:45:19;;;;;;;0.60;0.60;;;;;;;;;;5058751;28;20465;-83
2023/11/01 09:47:45;;;;;;;0.85;0.70;;;;;;;;;;5058320;28;20508;-83
2023/11/01 09:50:13;;;;;;;0.70;0.70;;;;;;;;;;5058523;28;20559;-86
2023/11/01 09:52:40;;;;;;;0.50;0.50;;;;;;;;;;5057989;28;20020;-83
2023/11/01 09:55:06;;;;;;;0.50;0.50;;;;;;;;;;5058195;28;20077;-84
2023/11/01 09:57:34;;;;;;;0.50;0.50;;;;;;;;;;5058835;28;20165;-84
2023/11/01 10:00:03;;;;;;;0.60;0.60;;;;;;;;;;5058574;28;20465;-85
2023/11/01 10:02:29;;;;;;;0.52;0.52;;;;;;;;;;5054076;28;20035;-84
2023/11/01 10:04:56;;;;;;;0.50;0.50;;;;;;;;;;5058622;28;20123;-87
2023/11/01 10:07:22;;;;;;;0.77;0.77;;;;;;;;;;5058216;28;20056;-87
2023/11/01 10:09:48;;;;;;;0.50;0.50;;;;;;;;;;5076540;28;20024;-85
2023/11/01 10:12:16;;;;;;;0.60;0.60;;;;;;;;;;5060240;28;20039;-81
2023/11/01 10:14:42;;;;;;;0.73;0.73;;;;;;;;;;5057418;28;20070;-81
2023/11/01 10:17:08;;;;;;;0.60;0.60;;;;;;;;;;5057841;28;20380;-81
2023/11/01 10:19:34;;;;;;;0.50;0.50;;;;;;;;;;5075380;28;20021;-79
2023/11/01 10:22:00;;;;;;;0.70;0.70;;;;;;;;;;5057494;28;20384;-80
2023/11/01 10:24:27;;;;;;;0.50;0.50;;;;;;;;;;5057605;28;20501;-81
2023/11/01 10:26:55;;;;;;;0.50;0.50;;;;;;;;;;5075242;28;20021;-81
2023/11/01 10:29:21;;;;;;;0.60;0.60;;;;;;;;;;5057359;28;20016;-82
2023/11/01 10:31:54;;;;;;;0.60;0.60;;;;;;;;;;5075540;28;20021;-82
2023/11/01 10:34:20;;;;;;;0.68;0.68;;;;;;;;;;5054002;28;20106;-82
2023/11/01 10:36:50;;;;;;;0.85;0.60;;;;;;;;;;5054859;28;20028;-80
2023/11/01 10:39:18;;;;;;;0.40;0.40;;;;;;;;;;5053865;28;20021;-81
2023/11/01 10:41:48;;;;;;;0.40;0.40;;;;;;;;;;5054821;28;20371;-81
2023/11/01 10:44:20;;;;;;;0.43;0.43;;;;;;;;;;5053747;28;20359;-81
2023/11/01 10:46:46;;;;;;;0.70;0.70;;;;;;;;;;5052755;28;20166;-81
2023/11/01 10:49:13;;;;;;;0.60;0.60;;;;;;;;;;5054268;28;20392;-81
2023/11/01 10:51:40;;;;;;;0.50;0.50;;;;;;;;;;5053543;28;20466;-81
2023/11/01 10:54:07;;;;;;;0.40;0.40;;;;;;;;;;5054967;28;20377;-81
2023/11/01 10:56:33;;;;;;;0.60;0.60;;;;;;;;;;5053113;28;20029;-81
2023/11/01 10:59:14;;;;;;;0.70;0.70;;;;;;;;;;5053327;28;20489;-81
2023/11/01 11:01:44;;;;;;;0.60;0.60;;;;;;;;;;5053530;28;20416;-81
2023/11/01 11:04:22;;;;;;;0.43;0.43;;;;;;;;;;5053258;28;20033;-81
2023/11/01 11:07:17;;;;;;;0.50;0.50;;;;;;;;;;5053316;28;20021;-83
2023/11/01 11:09:43;;;;;;;0.50;0.50;;;;;;;;;;5053489;28;20025;-83
2023/11/01 11:12:15;;;;;;;0.50;0.50;;;;;;;;;;5053260;28;20354;-81
2023/11/01 11:14:42;;;;;;;0.40;0.40;;;;;;;;;;5050321;28;20026;-81
2023/11/01 11:17:09;;;;;;;0.50;0.50;;;;;;;;;;5033601;28;20490;-81
2023/11/01 11:20:16;;;;;;;0.45;0.45;;;;;;;;;;5033265;28;20026;-80
2023/11/01 11:23:03;;;;;;;0.50;0.50;;;;;;;;;;4959855;28;20084;-81
2023/11/01 11:25:38;;;;;;;0.45;0.45;;;;;;;;;;4973073;28;20244;-80
2023/11/01 11:28:11;;;;;;;0.50;0.50;;;;;;;;;;4971988;28;20061;-80
2023/11/01 11:31:08;;;;;;;0.63;0.63;;;;;;;;;;4976145;28;20022;-81
2023/11/01 11:33:46;;;;;;;0.40;0.40;;;;;;;;;;4975990;28;20042;-80
2023/11/01 11:36:15;;;;;;;0.40;0.40;;;;;;;;;;4968901;28;20030;-81
2023/11/01 11:38:49;;;;;;;0.47;0.47;;;;;;;;;;4956493;28;20031;-79
2023/11/01 11:41:16;;;;;;;0.55;0.55;;;;;;;;;;4957107;28;20031;-82
2023/11/01 11:44:01;;;;;;;0.50;0.50;;;;;;;;;;4960835;28;20065;-82
2023/11/01 11:46:31;;;;;;;0.90;0.80;;;;;;;;;;4957019;28;20126;-81
2023/11/01 11:48:59;;;;;;;0.60;0.60;;;;;;;;;;4973350;28;20056;-82
2023/11/01 11:51:25;;;;;;;0.35;0.35;;;;;;;;;;4960612;28;20023;-82
2023/11/01 11:53:52;;;;;;;0.40;0.40;;;;;;;;;;5003134;28;20083;-80
2023/11/01 11:56:21;;;;;;;0.40;0.40;;;;;;;;;;5032780;28;20417;-82
2023/11/01 11:58:48;;;;;;;0.40;0.40;;;;;;;;;;5032213;28;20017;-79
2023/11/01 12:01:27;;;;;;;0.40;0.40;;;;;;;;;;5032138;28;20025;-79
2023/11/01 12:03:56;;;;;;;0.50;0.50;;;;;;;;;;5033615;28;20501;-82
2023/11/01 12:06:24;;;;;;;0.40;0.40;;;;;;;;;;5033673;28;20029;-82
2023/11/01 12:08:50;;;;;;;0.40;0.40;;;;;;;;;;5032111;28;20359;-84
2023/11/01 12:11:17;;;;;;;0.30;0.30;;;;;;;;;;5033613;28;20021;-82
2023/11/01 12:13:47;;;;;;;0.45;0.45;;;;;;;;;;5033154;28;20079;-81
2023/11/01 12:16:27;;;;;;;0.50;0.50;;;;;;;;;;5032366;28;20474;-81
2023/11/01 12:19:09;;;;;;;0.40;0.40;;;;;;;;;;5033320;28;20510;-81
2023/11/01 12:21:39;;;;;;;0.30;0.30;;;;;;;;;;5031686;28;20029;-80
2023/11/01 12:24:05;;;;;;;0.43;0.43;;;;;;;;;;5033401;28;20466;-81
2023/11/01 12:26:31;;;;;;;0.30;0.30;;;;;;;;;;5032994;28;20025;-83
2023/11/01 12:29:02;;;;;;;0.50;0.50;;;;;;;;;;5031665;28;20048;-82
2023/11/01 12:31:28;;;;;;;0.40;0.40;;;;;;;;;;5032488;28;20111;-83
2023/11/01 12:34:21;;;;;;;0.40;0.40;;;;;;;;;;5063576;28;20496;-82
2023/11/01 12:36:47;;;;;;;0.40;0.40;;;;;;;;;;5050209;28;20074;-81
2023/11/01 12:39:13;;;;;;;0.43;0.43;;;;;;;;;;5055347;28;20033;-82
2023/11/01 12:41:40;;;;;;;0.40;0.40;;;;;;;;;;5054858;28;20021;-82
2023/11/01 12:44:06;;;;;;;0.50;0.50;;;;;;;;;;5055206;28;20047;-81
2023/11/01 12:46:32;;;;;;;0.40;0.40;;;;;;;;;;5055329;28;20029;-83
2023/11/01 12:48:58;;;;;;;0.40;0.40;;;;;;;;;;5054969;28;20021;-83
2023/11/01 12:51:24;;;;;;;0.40;0.40;;;;;;;;;;5055281;28;20032;-83
2023/11/01 12:53:53;;;;;;;0.50;0.50;;;;;;;;;;5055198;28;20481;-81
2023/11/01 12:56:19;;;;;;;0.45;0.45;;;;;;;;;;5055555;28;20036;-82
2023/11/01 12:58:46;;;;;;;0.40;0.40;;;;;;;;;;5054145;28;20115;-82
2023/11/01 13:01:14;;;;;;;0.30;0.30;;;;;;;;;;5053003;28;20052;-83
2023/11/01 13:03:42;;;;;;;0.40;0.40;;;;;;;;;;5054753;28;20032;-82
2023/11/01 13:06:08;;;;;;;0.50;0.50;;;;;;;;;;5055150;28;20029;-83
2023/11/01 13:08:34;;;;;;;0.32;0.32;;;;;;;;;;5055114;28;20024;-82
2023/11/01 13:11:00;;;;;;;0.40;0.40;;;;;;;;;;5058552;28;20073;-82
2023/11/01 13:13:27;;;;;;;0.40;0.40;;;;;;;;;;5076712;28;20028;-83
2023/11/01 13:15:53;;;;;;;0.50;0.50;;;;;;;;;;5058760;28;20414;-83
2023/11/01 13:18:19;;;;;;;0.50;0.50;;;;;;;;;;5076605;28;20473;-81
2023/11/01 13:20:45;;;;;;;0.40;0.40;;;;;;;;;;5058326;28;20024;-82
2023/11/01 13:23:11;;;;;;;0.40;0.40;;;;;;;;;;5076578;28;20028;-81
2023/11/01 13:25:38;;;;;;;0.50;0.50;;;;;;;;;;5058193;28;20129;-82
2023/11/01 13:28:04;;;;;;;0.55;0.55;;;;;;;;;;5058399;28;20112;-82
2023/11/01 13:30:32;;;;;;;0.85;0.60;;;;;;;;;;5058164;28;20102;-83
2023/11/01 13:32:58;;;;;;;0.40;0.40;;;;;;;;;;5057922;28;20063;-82
2023/11/01 13:35:24;;;;;;;0.70;0.70;;;;;;;;;;5076381;28;20477;-82
2023/11/01 13:37:50;;;;;;;0.40;0.40;;;;;;;;;;5076391;28;20032;-82
2023/11/01 13:40:17;;;;;;;0.45;0.45;;;;;;;;;;5058450;28;20021;-81
2023/11/01 13:42:43;;;;;;;0.30;0.30;;;;;;;;;;5058150;28;20052;-82
2023/11/01 13:45:09;;;;;;;0.40;0.40;;;;;;;;;;5057988;28;20473;-82
2023/11/01 13:47:35;;;;;;;0.55;0.55;;;;;;;;;;5058001;28;20028;-82
2023/11/01 13:50:01;;;;;;;0.40;0.40;;;;;;;;;;5075918;28;20082;-81
2023/11/01 13:52:27;;;;;;;0.35;0.35;;;;;;;;;;5057909;28;20035;-82
2023/11/01 13:54:53;;;;;;;0.50;0.50;;;;;;;;;;5057711;28;20024;-83
2023/11/01 13:57:21;;;;;;;0.50;0.50;;;;;;;;;;5075947;28;20024;-81
2023/11/01 13:59:47;;;;;;;0.50;0.50;;;;;;;;;;5057604;28;20487;-81
2023/11/01 14:02:13;;;;;;;0.43;0.43;;;;;;;;;;5058136;28;20024;-83
2023/11/01 14:04:39;;;;;;;0.47;0.47;;;;;;;;;;5057860;28;20106;-83
2023/11/01 14:07:05;;;;;;;0.32;0.32;;;;;;;;;;5057612;28;20021;-83
2023/11/01 14:09:32;;;;;;;0.40;0.40;;;;;;;;;;5075778;28;20025;-83
2023/11/01 14:12:00;;;;;;;0.50;0.50;;;;;;;;;;5057991;28;20052;-82
2023/11/01 14:14:26;;;;;;;0.40;0.40;;;;;;;;;;5057144;28;20032;-84
2023/11/01 14:16:52;;;;;;;0.52;0.50;;;;;;;;;;5057644;28;20024;-83
2023/11/01 14:19:19;;;;;;;0.60;0.60;;;;;;;;;;5075663;28;20104;-82
2023/11/01 14:21:45;;;;;;;0.40;0.40;;;;;;;;;;5074908;28;20017;-86
2023/11/01 14:24:11;;;;;;;0.60;0.60;;;;;;;;;;5057790;28;20051;-85
2023/11/01 14:26:37;;;;;;;0.50;0.50;;;;;;;;;;5056966;28;20028;-81
2023/11/01 14:29:03;;;;;;;0.40;0.40;;;;;;;;;;5075673;28;20047;-83
2023/11/01 14:31:29;;;;;;;0.50;0.50;;;;;;;;;;5057551;28;20078;-81
2023/11/01 14:33:55;;;;;;;0.40;0.40;;;;;;;;;;5056819;28;20482;-82
2023/11/01 14:36:22;;;;;;;1.45;0.90;;;;;;;;;;5075719;28;20081;-83
2023/11/01 14:38:48;;;;;;;0.70;0.70;;;;;;;;;;5057418;28;20028;-84
2023/11/01 14:41:15;;;;;;;0.45;0.45;;;;;;;;;;5057257;28;20381;-85
2023/11/01 14:43:41;;;;;;;0.52;0.52;;;;;;;;;;5057221;28;20597;-83
2023/11/01 14:46:08;;;;;;;0.60;0.57;;;;;;;;;;5057599;28;20381;-82
2023/11/01 14:48:34;;;;;;;0.85;0.85;;;;;;;;;;5056899;28;20488;-83
2023/11/01 14:51:00;;;;;;;0.50;0.50;;;;;;;;;;5074742;28;20028;-83
2023/11/01 14:53:26;;;;;;;0.43;0.43;;;;;;;;;;5075058;28;20029;-84
2023/11/01 14:55:52;;;;;;;0.65;0.65;;;;;;;;;;5073984;28;20024;-83
2023/11/01 14:58:18;;;;;;;0.43;0.43;;;;;;;;;;5056578;28;20020;-82
2023/11/01 15:00:45;;;;;;;0.50;0.50;;;;;;;;;;5056831;28;20419;-83
2023/11/01 15:03:12;;;;;;;0.65;0.63;;;;;;;;;;5074210;28;20381;-84
2023/11/01 15:05:38;;;;;;;0.60;0.60;;;;;;;;;;5074552;28;20082;-84
2023/11/01 15:08:05;;;;;;;0.63;0.63;;;;;;;;;;5056589;28;20020;-82
2023/11/01 15:10:31;;;;;;;1.23;1.13;;;;;;;;;;5052425;28;20032;-83
2023/11/01 15:12:57;;;;;;;0.82;0.82;;;;;;;;;;5072516;28;20029;-81
2023/11/01 15:15:23;;;;;;;1.73;1.10;;;;;;;;;;5054889;28;20119;-84
2023/11/01 15:17:51;;;;;;;2.20;0.95;;;;;;;;;;5056603;28;20021;-79
2023/11/01 15:20:18;;;;;;;0.55;0.55;;;;;;;;;;5056960;28;20366;-81
2023/11/01 15:22:44;;;;;;;0.60;0.60;;;;;;;;;;5074233;28;20120;-82
2023/11/01 15:25:10;;;;;;;0.77;0.77;;;;;;;;;;5074654;28;20025;-81
2023/11/01 15:27:36;;;;;;;2.63;1.08;;;;;;;;;;5056803;28;20024;-82
2023/11/01 15:30:02;;;;;;;0.80;0.80;;;;;;;;;;5056600;28;20420;-82
2023/11/01 15:32:29;;;;;;;1.95;0.93;;;;;;;;;;5056226;28;20557;-82
2023/11/01 15:34:55;;;;;;;1.15;0.88;;;;;;;;;;5075176;28;20497;-84
2023/11/01 15:37:21;;;;;;;1.08;0.77;;;;;;;;;;5057054;28;20477;-83
2023/11/01 15:39:47;;;;;;;0.40;0.40;;;;;;;;;;5057655;28;20025;-82
2023/11/01 15:42:14;;;;;;;1.55;0.70;;;;;;;;;;5057047;28;20020;-81